Time;durP1;ratioP1;P1;durP2;ratioP2;P2;SDS_P1;SDS_P2;PMS_P1;PMS_P2;Temp;Humidity;BMP_temperature;BMP_pressure;BME280_temperature;BME280_humidity;BME280_pressure;Samples;Min_cycle;Max_cycle;Signal;HPM_P1;HPM_P2
2023/05/18 00:01:18;;;;;;;0.45;0.32;;;9.60;99.90;;;;;;4953730;29;20420;-76
2023/05/18 00:03:44;;;;;;;0.17;0.17;;;9.60;99.90;;;;;;4967917;28;20039;-75
2023/05/18 00:06:10;;;;;;;0.70;0.30;;;9.60;99.90;;;;;;4953614;28;20023;-76
2023/05/18 00:08:37;;;;;;;0.47;0.25;;;9.60;99.90;;;;;;4953641;28;20050;-76
2023/05/18 00:11:03;;;;;;;0.65;0.30;;;9.50;99.90;;;;;;4952480;29;20083;-76
2023/05/18 00:13:29;;;;;;;1.45;0.40;;;9.50;99.90;;;;;;4953610;28;20027;-75
2023/05/18 00:15:55;;;;;;;0.20;0.20;;;9.50;99.90;;;;;;4953577;28;20027;-75
2023/05/18 00:18:23;;;;;;;1.55;0.30;;;9.60;99.90;;;;;;4952299;29;20110;-75
2023/05/18 00:20:59;;;;;;;0.38;0.30;;;9.60;99.90;;;;;;4952267;29;20027;-76
2023/05/18 00:23:29;;;;;;;0.20;0.20;;;9.50;99.90;;;;;;4953611;28;20031;-75
2023/05/18 00:26:04;;;;;;;0.28;0.28;;;9.50;99.90;;;;;;4953393;28;20489;-75
2023/05/18 00:28:30;;;;;;;0.50;0.40;;;9.50;99.90;;;;;;4952310;29;20035;-76
2023/05/18 00:30:56;;;;;;;2.83;0.35;;;9.60;99.90;;;;;;4952264;29;20377;-76
2023/05/18 00:33:22;;;;;;;0.52;0.20;;;9.50;99.90;;;;;;4953495;28;20027;-75
2023/05/18 00:35:48;;;;;;;0.38;0.38;;;9.50;99.90;;;;;;4953408;28;20485;-76
2023/05/18 00:38:16;;;;;;;0.10;0.10;;;9.60;99.90;;;;;;4968032;28;20503;-76
2023/05/18 00:40:42;;;;;;;3.22;0.30;;;9.50;99.90;;;;;;4955470;28;20457;-76
2023/05/18 00:43:08;;;;;;;1.10;0.30;;;9.40;99.90;;;;;;4957110;28;20370;-75
2023/05/18 00:45:34;;;;;;;0.20;0.20;;;9.40;99.90;;;;;;4956909;28;20089;-76
2023/05/18 00:48:00;;;;;;;2.47;0.80;;;9.40;99.90;;;;;;4955609;29;20427;-76
2023/05/18 00:50:26;;;;;;;0.85;0.47;;;9.30;99.90;;;;;;4955687;28;20030;-76
2023/05/18 00:52:51;;;;;;;0.55;0.55;;;9.20;99.90;;;;;;4956823;28;20027;-76
2023/05/18 00:55:18;;;;;;;0.40;0.40;;;9.30;99.90;;;;;;4956676;29;20031;-76
2023/05/18 00:57:44;;;;;;;3.05;0.45;;;9.30;99.90;;;;;;4956698;28;20063;-75
2023/05/18 01:00:12;;;;;;;0.30;0.30;;;9.30;99.90;;;;;;4956836;28;20024;-75
2023/05/18 01:02:44;;;;;;;3.13;0.28;;;9.40;99.90;;;;;;4956737;28;20425;-76
2023/05/18 01:05:10;;;;;;;0.43;0.35;;;9.30;99.90;;;;;;4955908;28;20054;-76
2023/05/18 01:07:41;;;;;;;1.30;0.50;;;9.40;99.90;;;;;;4956618;28;20505;-75
2023/05/18 01:10:09;;;;;;;0.20;0.20;;;9.40;99.90;;;;;;4956699;28;20028;-75
2023/05/18 01:12:49;;;;;;;0.38;0.22;;;9.40;99.90;;;;;;4956590;28;20035;-75
2023/05/18 01:15:24;;;;;;;0.30;0.30;;;9.30;99.90;;;;;;4956324;28;20034;-75
2023/05/18 01:18:13;;;;;;;0.20;0.20;;;9.30;99.90;;;;;;4955360;29;20055;-75
2023/05/18 01:20:49;;;;;;;0.82;0.57;;;9.30;99.90;;;;;;4955238;29;20023;-76
2023/05/18 01:23:52;;;;;;;0.40;0.40;;;9.30;99.90;;;;;;4956251;28;20369;-75
2023/05/18 01:26:30;;;;;;;0.38;0.35;;;9.30;99.90;;;;;;4956238;28;20030;-76
2023/05/18 01:28:58;;;;;;;0.32;0.32;;;9.20;99.90;;;;;;4956200;28;20106;-76
2023/05/18 01:31:25;;;;;;;1.98;0.30;;;9.20;99.90;;;;;;4954977;29;20123;-76
2023/05/18 01:33:50;;;;;;;0.60;0.30;;;9.30;99.90;;;;;;4956105;28;20051;-76
2023/05/18 01:36:16;;;;;;;0.30;0.30;;;9.20;99.90;;;;;;4954803;29;20446;-76
2023/05/18 01:38:44;;;;;;;0.88;0.52;;;9.30;99.90;;;;;;4955914;29;20031;-75
2023/05/18 01:41:23;;;;;;;0.90;0.60;;;9.30;99.90;;;;;;4954871;29;20039;-75
2023/05/18 01:44:14;;;;;;;0.52;0.52;;;9.40;99.90;;;;;;4971132;28;20478;-75
2023/05/18 01:47:01;;;;;;;0.75;0.50;;;9.40;99.90;;;;;;4954702;29;20027;-76
2023/05/18 01:49:30;;;;;;;0.98;0.30;;;9.30;99.90;;;;;;4955757;28;20027;-75
2023/05/18 01:51:59;;;;;;;2.58;0.32;;;9.40;99.90;;;;;;4954699;28;20113;-76
2023/05/18 01:54:26;;;;;;;0.52;0.50;;;9.30;99.90;;;;;;4954437;28;20039;-76
2023/05/18 01:56:54;;;;;;;0.25;0.25;;;9.20;99.90;;;;;;4955854;28;20102;-76
2023/05/18 01:59:22;;;;;;;0.60;0.60;;;9.20;99.90;;;;;;4955610;28;20019;-76
2023/05/18 02:01:48;;;;;;;0.40;0.38;;;9.20;99.90;;;;;;4954543;29;20055;-76
2023/05/18 02:04:14;;;;;;;0.35;0.35;;;9.30;99.90;;;;;;4954943;28;20467;-75
2023/05/18 02:06:39;;;;;;;0.35;0.35;;;9.20;99.90;;;;;;4955420;29;20042;-76
2023/05/18 02:09:05;;;;;;;0.50;0.40;;;9.30;99.90;;;;;;4954120;28;20038;-76
2023/05/18 02:11:31;;;;;;;0.40;0.40;;;9.20;99.90;;;;;;4955496;28;20058;-76
2023/05/18 02:13:57;;;;;;;0.40;0.40;;;9.20;99.90;;;;;;4954080;28;20062;-75
2023/05/18 02:16:22;;;;;;;3.30;0.47;;;9.20;99.90;;;;;;4954075;29;20118;-76
2023/05/18 02:18:48;;;;;;;0.70;0.70;;;9.20;99.90;;;;;;4955254;29;20027;-75
2023/05/18 02:21:14;;;;;;;0.70;0.50;;;9.30;99.90;;;;;;4955310;29;20485;-75
2023/05/18 02:23:40;;;;;;;0.65;0.57;;;9.30;99.90;;;;;;4970018;28;20111;-76
2023/05/18 02:26:06;;;;;;;0.77;0.68;;;9.30;99.90;;;;;;4969793;28;20488;-75
2023/05/18 02:28:32;;;;;;;0.60;0.40;;;9.20;99.90;;;;;;4955089;29;20028;-75
2023/05/18 02:31:23;;;;;;;2.55;0.43;;;9.10;99.90;;;;;;4955205;28;20031;-76
2023/05/18 02:33:49;;;;;;;0.47;0.47;;;9.20;99.90;;;;;;4952108;28;20110;-76
2023/05/18 02:36:17;;;;;;;0.70;0.40;;;9.20;99.90;;;;;;4953667;29;20127;-75
2023/05/18 02:38:43;;;;;;;0.40;0.30;;;9.10;99.90;;;;;;4954935;28;20110;-75
2023/05/18 02:41:09;;;;;;;0.28;0.28;;;9.10;99.90;;;;;;4953714;29;20030;-76
2023/05/18 02:43:35;;;;;;;0.75;0.50;;;9.00;99.90;;;;;;4954802;28;20043;-76
2023/05/18 02:46:02;;;;;;;2.33;0.30;;;9.00;99.90;;;;;;4954834;28;20553;-76
2023/05/18 02:48:28;;;;;;;0.40;0.40;;;9.00;99.90;;;;;;4954699;28;20028;-76
2023/05/18 02:50:54;;;;;;;0.60;0.40;;;9.00;99.90;;;;;;4954717;29;20030;-75
2023/05/18 02:53:20;;;;;;;0.57;0.47;;;8.90;99.90;;;;;;4969462;28;20031;-76
2023/05/18 02:55:47;;;;;;;0.90;0.50;;;8.90;99.90;;;;;;4954550;28;20023;-76
2023/05/18 02:58:13;;;;;;;0.73;0.73;;;8.90;99.90;;;;;;4954476;28;20024;-76
2023/05/18 03:00:40;;;;;;;1.85;0.68;;;8.80;99.90;;;;;;4954676;28;20020;-76
2023/05/18 03:03:05;;;;;;;0.77;0.77;;;8.80;99.90;;;;;;4953459;28;20035;-76
2023/05/18 03:05:31;;;;;;;0.73;0.60;;;8.80;99.90;;;;;;4953190;29;20428;-75
2023/05/18 03:07:57;;;;;;;0.70;0.70;;;8.80;99.90;;;;;;4953080;28;20027;-76
2023/05/18 03:10:22;;;;;;;1.17;0.50;;;8.80;99.90;;;;;;4954520;29;20091;-75
2023/05/18 03:12:48;;;;;;;2.33;0.73;;;8.80;99.90;;;;;;4954433;29;20492;-75
2023/05/18 03:15:15;;;;;;;0.65;0.60;;;8.90;99.90;;;;;;4954058;28;20038;-76
2023/05/18 03:17:43;;;;;;;0.55;0.50;;;8.80;99.90;;;;;;4954275;28;20102;-75
2023/05/18 03:20:16;;;;;;;3.25;0.60;;;8.80;99.90;;;;;;4954278;29;20026;-75
2023/05/18 03:22:41;;;;;;;0.98;0.98;;;8.90;99.90;;;;;;4953063;29;20400;-76
2023/05/18 03:25:07;;;;;;;0.70;0.63;;;8.80;99.90;;;;;;4954090;28;20023;-75
2023/05/18 03:27:33;;;;;;;0.73;0.60;;;8.80;99.90;;;;;;4954029;29;20464;-76
2023/05/18 03:29:59;;;;;;;0.50;0.50;;;8.80;99.90;;;;;;4954129;29;20027;-75
2023/05/18 03:32:27;;;;;;;0.30;0.30;;;8.80;99.90;;;;;;4954139;28;20031;-75
2023/05/18 03:34:53;;;;;;;0.40;0.30;;;8.80;99.90;;;;;;4952523;28;20496;-75
2023/05/18 03:37:19;;;;;;;0.50;0.43;;;8.80;99.90;;;;;;4953875;28;20023;-76
2023/05/18 03:39:45;;;;;;;0.77;0.50;;;8.70;99.90;;;;;;4953993;28;20082;-76
2023/05/18 03:42:10;;;;;;;0.73;0.50;;;8.70;99.90;;;;;;4954011;29;20084;-76
2023/05/18 03:44:36;;;;;;;0.38;0.38;;;8.70;99.90;;;;;;4953693;28;20031;-76
2023/05/18 03:47:02;;;;;;;2.50;0.98;;;8.60;99.90;;;;;;4952588;29;20023;-75
2023/05/18 03:49:30;;;;;;;2.63;0.50;;;8.70;99.90;;;;;;4953843;29;20027;-75
2023/05/18 03:51:56;;;;;;;0.73;0.73;;;8.70;99.90;;;;;;4953929;28;20030;-75
2023/05/18 03:54:22;;;;;;;0.88;0.80;;;8.70;99.90;;;;;;4953720;28;20035;-76
2023/05/18 03:56:48;;;;;;;0.85;0.70;;;8.80;99.90;;;;;;4953803;28;20041;-75
2023/05/18 03:59:14;;;;;;;0.73;0.68;;;8.70;99.90;;;;;;4953682;29;20488;-75
2023/05/18 04:01:43;;;;;;;0.65;0.50;;;8.70;99.90;;;;;;4953771;29;20079;-76
2023/05/18 04:04:16;;;;;;;0.70;0.70;;;8.70;99.90;;;;;;4953087;28;20518;-75
2023/05/18 04:06:45;;;;;;;2.33;0.85;;;8.70;99.90;;;;;;4953753;29;20115;-76
2023/05/18 04:09:13;;;;;;;0.80;0.65;;;8.80;99.90;;;;;;4953644;28;20122;-76
2023/05/18 04:11:40;;;;;;;0.85;0.52;;;8.80;99.90;;;;;;4953658;28;20444;-76
2023/05/18 04:14:07;;;;;;;0.60;0.60;;;8.80;99.90;;;;;;4953571;28;20384;-75
2023/05/18 04:16:33;;;;;;;1.48;0.75;;;8.80;99.90;;;;;;4956797;28;20034;-76
2023/05/18 04:18:59;;;;;;;0.70;0.70;;;8.80;99.90;;;;;;4957486;28;20027;-75
2023/05/18 04:21:24;;;;;;;0.45;0.45;;;9.00;99.90;;;;;;4957523;28;20051;-75
2023/05/18 04:23:50;;;;;;;1.85;0.80;;;9.10;99.90;;;;;;4957373;28;20031;-76
2023/05/18 04:26:18;;;;;;;1.02;0.80;;;9.10;99.90;;;;;;4957410;28;20040;-75
2023/05/18 04:28:46;;;;;;;1.45;0.93;;;9.10;99.90;;;;;;4957262;28;20025;-75
2023/05/18 04:31:13;;;;;;;0.82;0.80;;;9.00;99.90;;;;;;4957342;28;20519;-76
2023/05/18 04:33:40;;;;;;;1.08;0.73;;;9.10;99.90;;;;;;4957196;28;20476;-76
2023/05/18 04:36:06;;;;;;;1.92;1.00;;;9.20;99.90;;;;;;4957201;28;20028;-76
2023/05/18 04:38:34;;;;;;;3.03;1.35;;;9.20;99.90;;;;;;4957076;29;20456;-76
2023/05/18 04:41:04;;;;;;;1.73;1.45;;;9.40;99.90;;;;;;4957125;29;20043;-76
2023/05/18 04:43:29;;;;;;;1.42;1.00;;;9.40;99.90;;;;;;4957074;28;20023;-75
2023/05/18 04:45:56;;;;;;;2.78;1.00;;;9.50;99.90;;;;;;4956988;29;20034;-75
2023/05/18 04:48:24;;;;;;;1.63;1.42;;;9.60;99.90;;;;;;4955710;29;20027;-76
2023/05/18 04:50:53;;;;;;;3.35;1.48;;;9.70;99.90;;;;;;4956929;28;20496;-76
2023/05/18 04:53:20;;;;;;;2.13;1.30;;;9.80;99.90;;;;;;4957028;28;20380;-75
2023/05/18 04:55:48;;;;;;;1.20;1.08;;;10.00;99.90;;;;;;4955404;29;20031;-76
2023/05/18 04:58:15;;;;;;;2.20;1.45;;;10.00;99.90;;;;;;4956703;28;20024;-75
2023/05/18 05:00:41;;;;;;;3.30;1.08;;;10.10;99.90;;;;;;4956848;28;20026;-76
2023/05/18 05:03:07;;;;;;;1.73;1.30;;;10.20;99.90;;;;;;4956118;28;20055;-76
2023/05/18 05:05:33;;;;;;;2.17;1.40;;;10.30;99.90;;;;;;4956595;29;20397;-76
2023/05/18 05:07:59;;;;;;;2.60;1.30;;;10.40;99.90;;;;;;4956416;28;20102;-76
2023/05/18 05:10:26;;;;;;;4.03;2.97;;;10.50;99.90;;;;;;4956707;29;20051;-75
2023/05/18 05:12:52;;;;;;;0.82;0.73;;;10.60;99.90;;;;;;4956550;28;20413;-75
2023/05/18 05:15:19;;;;;;;1.85;1.23;;;10.70;99.90;;;;;;4956262;29;20031;-76
2023/05/18 05:17:46;;;;;;;1.20;1.10;;;10.70;99.90;;;;;;4957827;28;20023;-75
2023/05/18 05:20:11;;;;;;;2.42;1.65;;;10.70;99.90;;;;;;4957727;28;20366;-75
2023/05/18 05:22:37;;;;;;;2.33;1.08;;;10.70;99.90;;;;;;4955223;29;20030;-75
2023/05/18 05:25:03;;;;;;;3.78;2.67;;;10.70;99.90;;;;;;4954994;28;20031;-75
2023/05/18 05:27:29;;;;;;;4.05;2.33;;;10.70;99.90;;;;;;4955977;28;20027;-75
2023/05/18 05:29:55;;;;;;;6.80;2.47;;;10.80;99.90;;;;;;4956204;28;20533;-75
2023/05/18 05:32:21;;;;;;;9.77;4.05;;;10.70;99.90;;;;;;4956355;29;20044;-75
2023/05/18 05:34:49;;;;;;;6.93;3.78;;;10.70;99.90;;;;;;4970822;28;20517;-75
2023/05/18 05:37:15;;;;;;;3.25;2.05;;;10.70;99.90;;;;;;4954724;29;20051;-75
2023/05/18 05:39:40;;;;;;;1.70;1.35;;;10.80;99.90;;;;;;4954924;29;20114;-75
2023/05/18 05:42:07;;;;;;;3.85;1.95;;;10.80;99.90;;;;;;4956047;29;20098;-75
2023/05/18 05:44:33;;;;;;;2.17;1.50;;;10.90;99.90;;;;;;4955816;28;20509;-75
2023/05/18 05:46:58;;;;;;;2.58;1.48;;;10.90;99.90;;;;;;4955981;29;20082;-75
2023/05/18 05:49:24;;;;;;;1.85;1.50;;;10.90;99.90;;;;;;4955841;29;20031;-75
2023/05/18 05:51:50;;;;;;;2.58;1.63;;;10.90;99.90;;;;;;4955938;28;20031;-75
2023/05/18 05:54:15;;;;;;;2.42;1.75;;;10.90;99.90;;;;;;4955726;28;20489;-75
2023/05/18 05:56:42;;;;;;;1.83;1.50;;;11.00;99.90;;;;;;4955727;29;20491;-75
2023/05/18 05:59:07;;;;;;;4.88;1.60;;;11.00;99.90;;;;;;4970779;28;20464;-75
2023/05/18 06:01:33;;;;;;;1.85;1.38;;;11.10;99.90;;;;;;4955531;29;20027;-75
2023/05/18 06:04:00;;;;;;;1.77;1.30;;;11.20;99.90;;;;;;4954347;29;20039;-75
2023/05/18 06:06:27;;;;;;;2.40;1.65;;;11.30;99.90;;;;;;4955584;28;20040;-75
2023/05/18 06:08:52;;;;;;;1.70;1.42;;;11.30;99.90;;;;;;4955684;28;20031;-75
2023/05/18 06:11:18;;;;;;;2.38;1.90;;;11.40;99.90;;;;;;4955259;29;20103;-75
2023/05/18 06:13:44;;;;;;;2.70;1.60;;;11.50;99.90;;;;;;4955332;29;20027;-75
2023/05/18 06:16:09;;;;;;;2.63;2.00;;;11.60;99.90;;;;;;4955411;28;20547;-74
2023/05/18 06:18:35;;;;;;;1.65;1.55;;;11.60;99.90;;;;;;4955258;29;20067;-75
2023/05/18 06:21:00;;;;;;;2.17;1.73;;;11.70;99.90;;;;;;4955355;29;20069;-75
2023/05/18 06:23:26;;;;;;;2.75;2.33;;;11.60;99.00;;;;;;4955372;29;20023;-75
2023/05/18 06:25:52;;;;;;;2.67;2.25;;;11.60;99.30;;;;;;4955159;29;20443;-75
2023/05/18 06:28:17;;;;;;;3.33;1.73;;;11.60;99.80;;;;;;4955092;29;20039;-75
2023/05/18 06:30:44;;;;;;;2.53;1.90;;;11.70;99.60;;;;;;4953967;29;20400;-74
2023/05/18 06:33:09;;;;;;;2.08;1.75;;;11.80;99.60;;;;;;4955153;28;20025;-75
2023/05/18 06:35:35;;;;;;;2.65;1.98;;;11.80;99.60;;;;;;4954843;28;20030;-75
2023/05/18 06:38:01;;;;;;;4.75;1.98;;;11.90;99.60;;;;;;4954248;28;20024;-75
2023/05/18 06:40:27;;;;;;;3.70;2.03;;;11.90;99.70;;;;;;4953792;29;20031;-75
2023/05/18 06:42:53;;;;;;;4.57;1.50;;;12.00;99.80;;;;;;4954881;28;20106;-75
2023/05/18 06:45:18;;;;;;;5.85;2.83;;;12.00;99.50;;;;;;4954503;29;20119;-75
2023/05/18 06:47:45;;;;;;;7.03;2.10;;;12.00;98.60;;;;;;4952654;29;20070;-75
2023/05/18 06:50:11;;;;;;;4.40;1.92;;;11.90;99.20;;;;;;4953286;28;20027;-75
2023/05/18 06:52:37;;;;;;;2.45;1.98;;;11.90;98.80;;;;;;4952881;28;20023;-75
2023/05/18 06:55:03;;;;;;;2.35;1.52;;;12.00;98.90;;;;;;4953823;28;20038;-75
2023/05/18 06:57:28;;;;;;;4.20;2.25;;;12.00;98.20;;;;;;4968822;28;20027;-75
2023/05/18 06:59:54;;;;;;;6.40;2.13;;;12.00;98.70;;;;;;4954037;29;20090;-75
2023/05/18 07:02:20;;;;;;;7.65;2.25;;;12.00;98.60;;;;;;4954210;28;20032;-75
2023/05/18 07:04:47;;;;;;;5.35;1.77;;;12.00;99.00;;;;;;4954193;28;20109;-75
2023/05/18 07:07:14;;;;;;;5.28;2.38;;;12.00;98.40;;;;;;4954639;28;20023;-75
2023/05/18 07:09:44;;;;;;;9.68;2.20;;;12.00;98.40;;;;;;4954589;28;20024;-75
2023/05/18 07:12:11;;;;;;;5.10;2.30;;;12.10;98.50;;;;;;4952884;29;20051;-75
2023/05/18 07:14:36;;;;;;;4.60;2.70;;;12.30;98.60;;;;;;4954108;28;20038;-75
2023/05/18 07:17:03;;;;;;;4.30;2.55;;;12.30;97.60;;;;;;4953192;29;20459;-75
2023/05/18 07:19:29;;;;;;;3.97;2.25;;;12.40;97.90;;;;;;4954208;28;20023;-75
2023/05/18 07:21:55;;;;;;;5.97;2.85;;;12.50;97.10;;;;;;4954248;29;20503;-75
2023/05/18 07:24:21;;;;;;;4.18;2.20;;;12.50;97.60;;;;;;4952798;28;20082;-75
2023/05/18 07:26:47;;;;;;;11.93;3.25;;;12.70;97.70;;;;;;4954135;28;20031;-75
2023/05/18 07:29:12;;;;;;;3.70;2.33;;;13.00;97.90;;;;;;4953516;29;20107;-74
2023/05/18 07:31:39;;;;;;;6.65;2.42;;;13.00;96.10;;;;;;4952939;29;20396;-75
2023/05/18 07:34:06;;;;;;;5.22;2.67;;;13.00;96.30;;;;;;4953996;28;20031;-74
2023/05/18 07:36:31;;;;;;;7.10;2.28;;;13.20;96.70;;;;;;4953954;28;20437;-75
2023/05/18 07:38:58;;;;;;;9.63;2.90;;;13.40;96.90;;;;;;4953692;28;20069;-75
2023/05/18 07:41:25;;;;;;;3.28;2.03;;;13.50;96.60;;;;;;4954136;28;20110;-75
2023/05/18 07:43:50;;;;;;;2.67;2.05;;;13.60;95.50;;;;;;4954044;28;20024;-75
2023/05/18 07:46:16;;;;;;;5.07;2.72;;;13.50;94.20;;;;;;4953848;28;20036;-74
2023/05/18 07:48:43;;;;;;;4.00;2.42;;;13.60;94.80;;;;;;4955267;28;20015;-75
2023/05/18 07:51:09;;;;;;;4.85;2.60;;;13.50;94.50;;;;;;4955220;28;20031;-75
2023/05/18 07:53:36;;;;;;;5.18;1.90;;;13.70;95.10;;;;;;4953841;28;20030;-74
2023/05/18 07:56:02;;;;;;;19.13;3.88;;;13.70;93.70;;;;;;4952186;29;20019;-75
2023/05/18 07:58:28;;;;;;;5.63;2.45;;;13.70;94.60;;;;;;4952666;29;20020;-75
2023/05/18 08:00:54;;;;;;;4.60;2.03;;;13.80;94.70;;;;;;4954064;28;20023;-74
2023/05/18 08:03:20;;;;;;;7.13;1.90;;;13.80;94.50;;;;;;4955829;28;20035;-75
2023/05/18 08:05:45;;;;;;;4.13;2.80;;;14.00;94.80;;;;;;4954075;28;20395;-74
2023/05/18 08:08:14;;;;;;;9.95;2.65;;;14.00;94.60;;;;;;4953568;29;20484;-75
2023/05/18 08:10:40;;;;;;;4.93;2.47;;;14.00;92.60;;;;;;4953621;28;20393;-74
2023/05/18 08:13:06;;;;;;;5.63;2.33;;;14.10;93.20;;;;;;4953752;28;20023;-75
2023/05/18 08:15:32;;;;;;;5.10;2.33;;;14.20;93.00;;;;;;4953595;28;20055;-74
2023/05/18 08:17:57;;;;;;;5.97;2.70;;;14.40;93.60;;;;;;4953557;28;20025;-75
2023/05/18 08:20:24;;;;;;;6.07;2.45;;;14.40;91.90;;;;;;4954127;29;20508;-77
2023/05/18 08:22:50;;;;;;;4.93;2.42;;;14.40;92.80;;;;;;4934345;28;20478;-77
2023/05/18 08:25:16;;;;;;;3.90;2.40;;;14.50;92.10;;;;;;4933418;29;20075;-76
2023/05/18 08:27:41;;;;;;;6.47;2.38;;;14.40;93.60;;;;;;4934493;29;20099;-76
2023/05/18 08:30:08;;;;;;;5.47;2.83;;;14.30;93.40;;;;;;4932878;29;20024;-76
2023/05/18 08:32:35;;;;;;;4.72;2.17;;;14.30;92.50;;;;;;4934513;28;20453;-75
2023/05/18 08:35:03;;;;;;;6.32;2.72;;;14.50;92.50;;;;;;4934321;28;20051;-77
2023/05/18 08:37:29;;;;;;;5.70;2.92;;;14.50;92.10;;;;;;4933180;29;20028;-75
2023/05/18 08:39:55;;;;;;;3.65;2.00;;;14.50;93.20;;;;;;4934409;29;20024;-77
2023/05/18 08:42:28;;;;;;;3.28;2.72;;;14.50;93.00;;;;;;4933432;29;20098;-78
2023/05/18 08:45:02;;;;;;;3.08;2.50;;;14.50;92.20;;;;;;4932933;29;20111;-77
2023/05/18 08:47:30;;;;;;;4.43;2.10;;;14.40;92.30;;;;;;4932833;29;20027;-78
2023/05/18 08:49:56;;;;;;;3.05;2.10;;;14.50;92.70;;;;;;4933049;29;20527;-77
2023/05/18 08:52:26;;;;;;;3.08;2.17;;;14.50;92.60;;;;;;4933043;29;20119;-77
2023/05/18 08:54:53;;;;;;;3.88;2.22;;;14.50;92.20;;;;;;4934001;29;20024;-79
2023/05/18 08:57:22;;;;;;;3.95;2.65;;;14.60;93.10;;;;;;4934609;29;20115;-77
2023/05/18 08:59:51;;;;;;;5.05;2.33;;;14.80;92.40;;;;;;4934632;28;20023;-77
2023/05/18 09:02:17;;;;;;;8.07;1.92;;;14.80;92.50;;;;;;4937426;28;20020;-79
2023/05/18 09:04:43;;;;;;;5.88;2.38;;;14.80;92.70;;;;;;4938250;29;20448;-77
2023/05/18 09:07:10;;;;;;;2.13;1.90;;;15.00;92.90;;;;;;4938093;29;20082;-78
2023/05/18 09:09:36;;;;;;;5.45;2.35;;;15.00;91.90;;;;;;4938563;29;20035;-78
2023/05/18 09:12:03;;;;;;;4.75;2.70;;;15.00;91.80;;;;;;4937451;29;20035;-78
2023/05/18 09:14:30;;;;;;;6.72;2.40;;;15.10;92.00;;;;;;4936116;29;20079;-76
2023/05/18 09:16:55;;;;;;;4.60;2.25;;;15.20;92.10;;;;;;4937026;29;20059;-76
2023/05/18 09:19:23;;;;;;;4.85;2.40;;;15.40;92.00;;;;;;4937062;29;20043;-77
2023/05/18 09:21:49;;;;;;;4.78;2.38;;;15.40;91.90;;;;;;4937340;29;20047;-78
2023/05/18 09:24:15;;;;;;;4.78;2.08;;;15.40;91.30;;;;;;4937168;29;20035;-77
2023/05/18 09:26:41;;;;;;;3.90;2.17;;;15.40;91.30;;;;;;4935666;29;20071;-77
2023/05/18 09:29:20;;;;;;;2.92;2.35;;;15.60;93.70;;;;;;4936156;29;20051;-77
2023/05/18 09:31:46;;;;;;;3.28;1.92;;;15.80;91.80;;;;;;4936260;29;20027;-78
2023/05/18 09:34:13;;;;;;;2.92;2.10;;;15.70;91.60;;;;;;4937388;29;20083;-77
2023/05/18 09:36:39;;;;;;;4.65;2.35;;;15.60;90.30;;;;;;4934837;29;20436;-77
2023/05/18 09:39:11;;;;;;;6.82;2.35;;;15.40;91.20;;;;;;4935796;29;20032;-77
2023/05/18 09:41:38;;;;;;;4.85;2.45;;;15.50;92.20;;;;;;4935896;29;20035;-78
2023/05/18 09:44:08;;;;;;;3.97;1.90;;;15.40;91.80;;;;;;4936976;28;20023;-77
2023/05/18 09:46:37;;;;;;;3.10;1.70;;;15.40;91.40;;;;;;4937119;29;20055;-77
2023/05/18 09:49:04;;;;;;;3.00;2.00;;;15.50;91.60;;;;;;4936973;29;20058;-77
2023/05/18 09:51:34;;;;;;;2.42;1.55;;;15.50;90.90;;;;;;4937072;29;20163;-77
2023/05/18 09:54:03;;;;;;;2.50;1.75;;;15.60;90.50;;;;;;4935548;29;20083;-77
2023/05/18 09:56:30;;;;;;;4.20;2.55;;;15.80;90.30;;;;;;4935455;29;20020;-78
2023/05/18 09:58:57;;;;;;;4.47;1.77;;;15.70;93.00;;;;;;4935391;29;20408;-77
2023/05/18 10:01:23;;;;;;;7.35;2.08;;;15.80;92.10;;;;;;4936356;28;20024;-77
2023/05/18 10:03:49;;;;;;;4.18;1.63;;;15.90;91.30;;;;;;4935500;29;20043;-77
2023/05/18 10:06:19;;;;;;;3.03;1.95;;;16.10;91.10;;;;;;4935288;29;20437;-77
2023/05/18 10:08:45;;;;;;;3.38;1.88;;;16.10;91.40;;;;;;4935454;29;20087;-77
2023/05/18 10:11:11;;;;;;;3.28;2.00;;;15.90;89.20;;;;;;4936903;29;20038;-77
2023/05/18 10:13:37;;;;;;;4.53;2.00;;;16.00;90.90;;;;;;4934037;29;20031;-77
2023/05/18 10:16:04;;;;;;;2.28;1.80;;;16.00;90.90;;;;;;4935221;29;20520;-77
2023/05/18 10:18:40;;;;;;;4.38;1.77;;;16.20;90.50;;;;;;4935056;29;20023;-77
2023/05/18 10:21:07;;;;;;;2.17;1.58;;;16.40;90.00;;;;;;4936599;29;20031;-77
2023/05/18 10:23:34;;;;;;;4.43;1.77;;;16.10;89.50;;;;;;4936629;29;20529;-77
2023/05/18 10:26:03;;;;;;;2.75;1.67;;;16.20;90.80;;;;;;4936514;29;20028;-78
2023/05/18 10:28:44;;;;;;;2.13;1.80;;;16.10;90.30;;;;;;4936323;29;20088;-76
2023/05/18 10:31:10;;;;;;;2.50;1.77;;;16.20;89.60;;;;;;4935459;29;20031;-77
2023/05/18 10:33:36;;;;;;;6.10;1.40;;;16.10;90.00;;;;;;4935096;29;20079;-77
2023/05/18 10:36:04;;;;;;;2.22;1.48;;;16.20;90.50;;;;;;4935079;29;20035;-77
2023/05/18 10:38:30;;;;;;;3.05;1.83;;;16.20;89.60;;;;;;4934926;29;20020;-77
2023/05/18 10:40:59;;;;;;;5.13;2.00;;;16.10;88.90;;;;;;4936192;29;20425;-77
2023/05/18 10:43:26;;;;;;;3.47;1.80;;;16.10;89.70;;;;;;4934966;29;20024;-77
2023/05/18 10:45:59;;;;;;;2.58;1.90;;;16.20;89.20;;;;;;4936171;29;20110;-77
2023/05/18 10:48:27;;;;;;;3.22;2.03;;;16.20;88.50;;;;;;4934646;29;20508;-77
2023/05/18 10:50:54;;;;;;;4.05;2.65;;;16.40;88.80;;;;;;4934761;29;20118;-76
2023/05/18 10:53:23;;;;;;;2.28;1.63;;;16.30;88.30;;;;;;4935916;29;20039;-77
2023/05/18 10:55:50;;;;;;;1.95;1.60;;;16.30;89.00;;;;;;4935608;29;20024;-77
2023/05/18 10:58:18;;;;;;;3.67;2.30;;;16.50;87.80;;;;;;4935561;29;20023;-77
2023/05/18 11:00:50;;;;;;;3.13;2.80;;;16.50;88.20;;;;;;4949390;28;20503;-77
2023/05/18 11:03:17;;;;;;;4.10;1.83;;;16.50;88.10;;;;;;4953316;29;20506;-76
2023/05/18 11:05:43;;;;;;;4.70;1.77;;;16.40;89.40;;;;;;4953286;29;20051;-76
2023/05/18 11:08:09;;;;;;;4.97;2.45;;;16.60;90.00;;;;;;4954315;28;20082;-76
2023/05/18 11:10:46;;;;;;;1.92;1.70;;;16.80;87.50;;;;;;4954593;28;20023;-76
2023/05/18 11:13:13;;;;;;;3.60;2.17;;;16.80;87.50;;;;;;4952758;29;20062;-76
2023/05/18 11:16:00;;;;;;;3.08;1.92;;;16.80;87.80;;;;;;4952896;29;20392;-76
2023/05/18 11:18:40;;;;;;;2.65;2.00;;;16.80;88.80;;;;;;4954288;28;20034;-78
2023/05/18 11:21:23;;;;;;;4.00;2.17;;;16.60;86.40;;;;;;4954822;28;20111;-78
2023/05/18 11:26:19;;;;;;;3.20;1.90;;;16.30;89.10;;;;;;4971120;28;20050;-78
2023/05/18 11:28:46;;;;;;;3.38;2.05;;;16.10;87.60;;;;;;4972620;28;20023;-77
2023/05/18 11:31:17;;;;;;;7.40;1.98;;;16.00;88.00;;;;;;4972628;28;20030;-78
2023/05/18 11:33:42;;;;;;;2.60;1.70;;;16.40;89.30;;;;;;4973661;28;20027;-78
2023/05/18 11:36:10;;;;;;;2.35;1.52;;;16.70;88.90;;;;;;4972219;28;20045;-79
2023/05/18 11:38:54;;;;;;;3.25;2.00;;;16.80;85.60;;;;;;4972329;28;20038;-78
2023/05/18 11:41:29;;;;;;;4.45;1.55;;;17.00;85.20;;;;;;4973572;28;20038;-79
2023/05/18 11:44:14;;;;;;;;;;;16.90;85.90;;;;;;4973971;28;20034;-78
2023/05/18 11:47:00;;;;;;;3.80;2.25;;;16.90;86.70;;;;;;4972051;28;20358;-78
2023/05/18 11:49:28;;;;;;;3.35;1.50;;;16.90;86.90;;;;;;4971963;28;20026;-79
2023/05/18 11:52:04;;;;;;;1.52;1.42;;;17.00;84.50;;;;;;4972156;28;20039;-79
2023/05/18 11:54:54;;;;;;;2.15;1.90;;;16.80;84.40;;;;;;4972991;28;20031;-79
2023/05/18 11:57:42;;;;;;;1.70;1.48;;;16.80;83.70;;;;;;4960134;28;20042;-79
2023/05/18 12:00:14;;;;;;;2.60;1.83;;;16.70;86.00;;;;;;4973392;28;20018;-79
2023/05/18 12:02:45;;;;;;;3.22;1.85;;;16.60;87.20;;;;;;4972195;28;20023;-80
2023/05/18 12:05:11;;;;;;;2.50;1.67;;;16.50;86.80;;;;;;4971848;28;20191;-79
2023/05/18 12:07:38;;;;;;;1.90;1.48;;;16.60;86.80;;;;;;4971800;28;20118;-79
2023/05/18 12:10:10;;;;;;;2.25;1.65;;;16.70;89.10;;;;;;4971978;28;20582;-78
2023/05/18 12:12:36;;;;;;;3.50;1.90;;;17.00;85.70;;;;;;4973375;28;20062;-79
2023/05/18 12:15:07;;;;;;;4.22;2.00;;;17.10;85.90;;;;;;4971619;28;20113;-78
2023/05/18 12:17:49;;;;;;;2.20;1.60;;;17.20;85.80;;;;;;4971923;28;20023;-79
2023/05/18 12:20:20;;;;;;;5.78;1.73;;;16.90;83.30;;;;;;4972850;28;20030;-78
2023/05/18 12:22:51;;;;;;;2.72;1.55;;;16.70;83.60;;;;;;4971992;28;20055;-80
2023/05/18 12:25:18;;;;;;;2.75;2.00;;;16.90;87.70;;;;;;4971609;28;20073;-79
2023/05/18 12:27:46;;;;;;;3.47;1.98;;;16.90;88.00;;;;;;4971734;28;20126;-78
2023/05/18 12:30:20;;;;;;;3.05;1.83;;;17.20;88.70;;;;;;4971809;28;20488;-78
2023/05/18 12:32:54;;;;;;;3.88;2.33;;;17.30;86.90;;;;;;4972933;28;20027;-79
2023/05/18 12:35:27;;;;;;;2.28;1.83;;;17.30;86.00;;;;;;4973098;28;20037;-79
2023/05/18 12:38:00;;;;;;;2.42;1.70;;;17.20;87.30;;;;;;4975271;28;20023;-79
2023/05/18 12:40:26;;;;;;;2.50;2.00;;;17.20;86.30;;;;;;4976521;28;20383;-79
2023/05/18 12:42:54;;;;;;;4.63;1.90;;;17.20;85.70;;;;;;4975389;28;20031;-79
2023/05/18 12:45:25;;;;;;;2.70;2.08;;;17.00;85.50;;;;;;4976428;28;20031;-79
2023/05/18 12:47:53;;;;;;;2.50;1.95;;;17.00;85.70;;;;;;4975176;28;20125;-79
2023/05/18 12:50:19;;;;;;;2.15;1.85;;;17.10;87.70;;;;;;4975177;28;20027;-79
2023/05/18 12:52:47;;;;;;;4.40;1.75;;;17.10;87.30;;;;;;4975318;28;20034;-79
2023/05/18 12:55:23;;;;;;;2.42;1.50;;;17.00;84.70;;;;;;4974885;28;20033;-78
2023/05/18 12:58:01;;;;;;;3.35;2.00;;;17.10;86.00;;;;;;4975003;28;20023;-79